Noack, Texas
Current Conditions -  °F | °C
As of 5:58 PM on Sunday 25 Jan 2015 (Local Time) from KGRK Reporting Station
Clear Clear  
Wind Chill: 61°   Ceiling: Unl
Heat Index: 61°   Visibility: 10mi
Dew Point: 25°   Wind: 13mph
Humidity: 25%   Direction: 320°NW
Pressure: 30.14"   Gusts: NA
Location:  30.5793°N, 97.5096°W
Report Text: KGRK 252358Z AUTO 32011KT 10SM CLR 16/M04 A3014 RMK AO2 SLP205 T01621038 10204 20162 52009 $
Loading
Personal Weather Stations






























Interactive Weather Map New forecast layout! Learn more

10-Day Weather Forecast

Advertisements
Track Severe Weather on mobile